sensor_id;sensor_type;location;lat;lon;timestamp;pressure;altitude;pressure_sealevel;temperature;humidity
14343;BME280;7255;53.596;9.960;2022-08-19T00:02:10;101077.81;;;19.99;nan
14343;BME280;7255;53.596;9.960;2022-08-19T00:04:40;101073.41;;;20.13;nan
14343;BME280;7255;53.596;9.960;2022-08-19T00:07:07;101074.75;;;20.11;nan
14343;BME280;7255;53.596;9.960;2022-08-19T00:09:33;101068.72;;;20.24;nan
14343;BME280;7255;53.596;9.960;2022-08-19T00:12:00;101065.62;;;20.36;nan
14343;BME280;7255;53.596;9.960;2022-08-19T00:14:28;101062.69;;;20.22;nan
14343;BME280;7255;53.596;9.960;2022-08-19T00:16:56;101046.97;;;20.04;nan
14343;BME280;7255;53.596;9.960;2022-08-19T00:19:24;101050.84;;;19.92;nan
14343;BME280;7255;53.596;9.960;2022-08-19T00:21:51;101054.16;;;19.84;nan
14343;BME280;7255;53.596;9.960;2022-08-19T00:24:18;101053.81;;;20.01;nan
14343;BME280;7255;53.596;9.960;2022-08-19T00:26:45;101053.50;;;20.08;nan
14343;BME280;7255;53.596;9.960;2022-08-19T00:29:13;101055.62;;;20.16;nan
14343;BME280;7255;53.596;9.960;2022-08-19T00:31:40;101056.56;;;19.96;nan
14343;BME280;7255;53.596;9.960;2022-08-19T00:34:06;101058.78;;;19.84;nan
14343;BME280;7255;53.596;9.960;2022-08-19T00:36:34;101047.37;;;19.76;nan
14343;BME280;7255;53.596;9.960;2022-08-19T00:39:02;101047.06;;;19.83;nan
14343;BME280;7255;53.596;9.960;2022-08-19T00:41:29;101050.31;;;19.85;nan
14343;BME280;7255;53.596;9.960;2022-08-19T00:44:00;101062.88;;;19.86;nan
14343;BME280;7255;53.596;9.960;2022-08-19T00:46:28;101052.00;;;19.76;nan
14343;BME280;7255;53.596;9.960;2022-08-19T00:48:55;101046.56;;;19.76;nan
14343;BME280;7255;53.596;9.960;2022-08-19T00:51:22;101047.66;;;19.80;nan
14343;BME280;7255;53.596;9.960;2022-08-19T00:53:51;101047.94;;;19.63;nan
14343;BME280;7255;53.596;9.960;2022-08-19T00:56:18;101034.03;;;19.65;nan
14343;BME280;7255;53.596;9.960;2022-08-19T00:58:45;101030.78;;;19.62;nan
14343;BME280;7255;53.596;9.960;2022-08-19T01:01:11;101027.50;;;19.60;nan
14343;BME280;7255;53.596;9.960;2022-08-19T01:03:39;101021.50;;;19.64;nan
14343;BME280;7255;53.596;9.960;2022-08-19T01:06:06;101037.63;;;19.50;nan
14343;BME280;7255;53.596;9.960;2022-08-19T01:08:33;101034.56;;;19.61;nan
14343;BME280;7255;53.596;9.960;2022-08-19T01:11:01;101033.75;;;19.61;nan
14343;BME280;7255;53.596;9.960;2022-08-19T01:13:29;101035.72;;;19.50;nan
14343;BME280;7255;53.596;9.960;2022-08-19T01:16:00;101039.75;;;19.58;nan
14343;BME280;7255;53.596;9.960;2022-08-19T01:18:29;101033.75;;;19.61;nan
14343;BME280;7255;53.596;9.960;2022-08-19T01:20:58;101033.75;;;19.71;nan
14343;BME280;7255;53.596;9.960;2022-08-19T01:23:28;101023.66;;;19.82;nan
14343;BME280;7255;53.596;9.960;2022-08-19T01:26:10;101019.59;;;19.59;nan
14343;BME280;7255;53.596;9.960;2022-08-19T01:28:37;101022.88;;;19.61;nan
14343;BME280;7255;53.596;9.960;2022-08-19T01:31:05;101030.25;;;19.45;nan
14343;BME280;7255;53.596;9.960;2022-08-19T01:33:31;101027.25;;;19.47;nan
14343;BME280;7255;53.596;9.960;2022-08-19T01:36:05;101032.97;;;19.50;nan
14343;BME280;7255;53.596;9.960;2022-08-19T01:38:35;101035.97;;;19.59;nan
14343;BME280;7255;53.596;9.960;2022-08-19T01:41:02;101025.06;;;19.59;nan
14343;BME280;7255;53.596;9.960;2022-08-19T01:43:28;101018.53;;;19.55;nan
14343;BME280;7255;53.596;9.960;2022-08-19T01:45:55;101016.34;;;19.57;nan
14343;BME280;7255;53.596;9.960;2022-08-19T01:48:21;101011.72;;;19.57;nan
14343;BME280;7255;53.596;9.960;2022-08-19T01:50:49;101014.41;;;19.62;nan
14343;BME280;7255;53.596;9.960;2022-08-19T01:53:15;101001.31;;;19.75;nan
14343;BME280;7255;53.596;9.960;2022-08-19T01:55:43;100996.13;;;19.68;nan
14343;BME280;7255;53.596;9.960;2022-08-19T01:58:14;100994.00;;;19.60;nan
14343;BME280;7255;53.596;9.960;2022-08-19T02:00:42;100989.34;;;19.60;nan
14343;BME280;7255;53.596;9.960;2022-08-19T02:03:08;100997.53;;;19.55;nan
14343;BME280;7255;53.596;9.960;2022-08-19T02:05:36;100997.19;;;19.72;nan
14343;BME280;7255;53.596;9.960;2022-08-19T02:08:03;100996.94;;;19.69;nan
14343;BME280;7255;53.596;9.960;2022-08-19T02:10:29;101002.38;;;19.79;nan
14343;BME280;7255;53.596;9.960;2022-08-19T02:12:58;101005.66;;;19.81;nan
14343;BME280;7255;53.596;9.960;2022-08-19T02:15:24;101004.50;;;19.87;nan
14343;BME280;7255;53.596;9.960;2022-08-19T02:17:51;101002.38;;;19.79;nan
14343;BME280;7255;53.596;9.960;2022-08-19T02:20:18;101001.03;;;19.71;nan
14343;BME280;7255;53.596;9.960;2022-08-19T02:22:44;100987.78;;;19.49;nan
14343;BME280;7255;53.596;9.960;2022-08-19T02:25:11;100977.44;;;19.36;nan
14343;BME280;7255;53.596;9.960;2022-08-19T02:27:39;100971.25;;;19.25;nan
14343;BME280;7255;53.596;9.960;2022-08-19T02:30:11;100972.87;;;19.16;nan
14343;BME280;7255;53.596;9.960;2022-08-19T02:32:38;100975.63;;;19.06;nan
14343;BME280;7255;53.596;9.960;2022-08-19T02:35:05;100969.06;;;19.17;nan
14343;BME280;7255;53.596;9.960;2022-08-19T02:37:31;100973.72;;;19.16;nan
14343;BME280;7255;53.596;9.960;2022-08-19T02:40:15;100969.31;;;19.20;nan
14343;BME280;7255;53.596;9.960;2022-08-19T02:42:43;100980.22;;;19.20;nan
14343;BME280;7255;53.596;9.960;2022-08-19T02:45:12;100984.88;;;19.10;nan
14343;BME280;7255;53.596;9.960;2022-08-19T02:47:39;100987.06;;;19.18;nan
14343;BME280;7255;53.596;9.960;2022-08-19T02:50:06;100998.72;;;19.29;nan
14343;BME280;7255;53.596;9.960;2022-08-19T02:52:33;100983.19;;;19.29;nan
14343;BME280;7255;53.596;9.960;2022-08-19T02:55:00;100991.62;;;19.38;nan
14343;BME280;7255;53.596;9.960;2022-08-19T02:57:27;100983.72;;;19.36;nan
14343;BME280;7255;53.596;9.960;2022-08-19T02:59:53;100978.56;;;19.19;nan
14343;BME280;7255;53.596;9.960;2022-08-19T03:02:21;100987.56;;;19.25;nan
14343;BME280;7255;53.596;9.960;2022-08-19T03:04:47;100985.66;;;19.31;nan
14343;BME280;7255;53.596;9.960;2022-08-19T03:07:14;100991.06;;;19.41;nan
14343;BME280;7255;53.596;9.960;2022-08-19T03:09:41;100977.69;;;19.50;nan
14343;BME280;7255;53.596;9.960;2022-08-19T03:12:08;100987.00;;;19.28;nan
14343;BME280;7255;53.596;9.960;2022-08-19T03:14:35;100991.94;;;19.21;nan
14343;BME280;7255;53.596;9.960;2022-08-19T03:17:02;100992.19;;;19.24;nan
14343;BME280;7255;53.596;9.960;2022-08-19T03:19:31;100990.25;;;19.40;nan
14343;BME280;7255;53.596;9.960;2022-08-19T03:21:58;100991.66;;;19.28;nan
14343;BME280;7255;53.596;9.960;2022-08-19T03:24:24;100990.84;;;19.17;nan
14343;BME280;7255;53.596;9.960;2022-08-19T03:26:53;100996.28;;;19.17;nan
14343;BME280;7255;53.596;9.960;2022-08-19T03:29:23;100986.78;;;19.14;nan
14343;BME280;7255;53.596;9.960;2022-08-19T03:31:50;100989.50;;;19.09;nan
14343;BME280;7255;53.596;9.960;2022-08-19T03:34:19;100992.22;;;19.14;nan
14343;BME280;7255;53.596;9.960;2022-08-19T03:36:48;100990.00;;;19.27;nan
14343;BME280;7255;53.596;9.960;2022-08-19T03:39:15;100997.41;;;19.11;nan
14343;BME280;7255;53.596;9.960;2022-08-19T03:41:43;101000.34;;;19.30;nan
14343;BME280;7255;53.596;9.960;2022-08-19T03:44:10;100999.50;;;19.39;nan
14343;BME280;7255;53.596;9.960;2022-08-19T03:46:37;101007.97;;;19.38;nan
14343;BME280;7255;53.596;9.960;2022-08-19T03:49:04;101006.28;;;19.52;nan
14343;BME280;7255;53.596;9.960;2022-08-19T03:51:34;101002.72;;;19.52;nan
14343;BME280;7255;53.596;9.960;2022-08-19T03:54:04;100997.03;;;19.48;nan
14343;BME280;7255;53.596;9.960;2022-08-19T03:56:33;101007.41;;;19.41;nan
14343;BME280;7255;53.596;9.960;2022-08-19T03:59:00;101007.38;;;19.46;nan
14343;BME280;7255;53.596;9.960;2022-08-19T04:01:28;101015.03;;;19.39;nan
14343;BME280;7255;53.596;9.960;2022-08-19T04:03:55;101004.19;;;19.18;nan
14343;BME280;7255;53.596;9.960;2022-08-19T04:06:25;101020.00;;;19.21;nan
14343;BME280;7255;53.596;9.960;2022-08-19T04:08:54;101021.66;;;19.12;nan
14343;BME280;7255;53.596;9.960;2022-08-19T04:11:24;101021.66;;;19.12;nan
14343;BME280;7255;53.596;9.960;2022-08-19T04:13:52;101025.97;;;19.18;nan
14343;BME280;7255;53.596;9.960;2022-08-19T04:16:19;101034.69;;;19.20;nan
14343;BME280;7255;53.596;9.960;2022-08-19T04:18:47;101033.03;;;19.19;nan
14343;BME280;7255;53.596;9.960;2022-08-19T04:21:16;101025.44;;;19.01;nan
14343;BME280;7255;53.596;9.960;2022-08-19T04:23:42;101033.03;;;19.19;nan
14343;BME280;7255;53.596;9.960;2022-08-19T04:26:12;101043.13;;;19.19;nan
14343;BME280;7255;53.596;9.960;2022-08-19T04:28:40;101057.59;;;19.14;nan
14343;BME280;7255;53.596;9.960;2022-08-19T04:31:13;101047.22;;;19.01;nan
14343;BME280;7255;53.596;9.960;2022-08-19T04:33:39;101048.34;;;18.95;nan
14343;BME280;7255;53.596;9.960;2022-08-19T04:36:06;101052.41;;;19.08;nan
14343;BME280;7255;53.596;9.960;2022-08-19T04:38:33;101065.47;;;19.16;nan
14343;BME280;7255;53.596;9.960;2022-08-19T04:40:59;101058.97;;;19.01;nan
14343;BME280;7255;53.596;9.960;2022-08-19T04:43:53;101060.03;;;18.90;nan
14343;BME280;7255;53.596;9.960;2022-08-19T04:46:19;101055.94;;;19.03;nan
14343;BME280;7255;53.596;9.960;2022-08-19T04:48:46;101062.22;;;18.83;nan
14343;BME280;7255;53.596;9.960;2022-08-19T04:51:12;101060.25;;;18.68;nan
14343;BME280;7255;53.596;9.960;2022-08-19T04:53:41;101056.47;;;18.69;nan
14343;BME280;7255;53.596;9.960;2022-08-19T04:56:09;101063.28;;;18.66;nan
14343;BME280;7255;53.596;9.960;2022-08-19T04:58:38;101058.62;;;18.77;nan
14343;BME280;7255;53.596;9.960;2022-08-19T05:01:06;101063.53;;;18.80;nan
14343;BME280;7255;53.596;9.960;2022-08-19T05:03:34;101066.84;;;18.82;nan
14343;BME280;7255;53.596;9.960;2022-08-19T05:06:04;101054.88;;;18.89;nan
14343;BME280;7255;53.596;9.960;2022-08-19T05:08:33;101062.44;;;18.66;nan
14343;BME280;7255;53.596;9.960;2022-08-19T05:11:01;101060.81;;;18.75;nan
14343;BME280;7255;53.596;9.960;2022-08-19T05:13:28;101078.25;;;18.69;nan
14343;BME280;7255;53.596;9.960;2022-08-19T05:15:56;101077.72;;;18.82;nan
14343;BME280;7255;53.596;9.960;2022-08-19T05:18:24;101071.75;;;18.85;nan
14343;BME280;7255;53.596;9.960;2022-08-19T05:21:09;101073.63;;;18.90;nan
14343;BME280;7255;53.596;9.960;2022-08-19T05:23:54;101076.09;;;19.02;nan
14343;BME280;7255;53.596;9.960;2022-08-19T05:26:20;101081.03;;;19.05;nan
14343;BME280;7255;53.596;9.960;2022-08-19T05:28:46;101076.12;;;19.12;nan
14343;BME280;7255;53.596;9.960;2022-08-19T05:31:13;101078.56;;;19.03;nan
14343;BME280;7255;53.596;9.960;2022-08-19T05:33:40;101080.44;;;19.08;nan
14343;BME280;7255;53.596;9.960;2022-08-19T05:36:07;101076.91;;;19.02;nan
14343;BME280;7255;53.596;9.960;2022-08-19T05:38:34;101085.34;;;19.01;nan
14343;BME280;7255;53.596;9.960;2022-08-19T05:41:00;101095.16;;;18.97;nan
14343;BME280;7255;53.596;9.960;2022-08-19T05:43:27;101086.19;;;18.91;nan
14343;BME280;7255;53.596;9.960;2022-08-19T05:45:54;101092.44;;;18.92;nan
14343;BME280;7255;53.596;9.960;2022-08-19T05:48:20;101086.44;;;18.84;nan
14343;BME280;7255;53.596;9.960;2022-08-19T05:50:48;101082.66;;;18.96;nan
14343;BME280;7255;53.596;9.960;2022-08-19T05:53:15;101076.63;;;18.94;nan
14343;BME280;7255;53.596;9.960;2022-08-19T05:55:42;101080.47;;;18.88;nan
14343;BME280;7255;53.596;9.960;2022-08-19T05:58:08;101086.19;;;19.01;nan
14343;BME280;7255;53.596;9.960;2022-08-19T06:00:35;101082.62;;;18.85;nan
14343;BME280;7255;53.596;9.960;2022-08-19T06:03:02;101075.28;;;18.81;nan
14343;BME280;7255;53.596;9.960;2022-08-19T06:05:29;101074.19;;;19.08;nan
14343;BME280;7255;53.596;9.960;2022-08-19T06:07:57;101068.47;;;19.14;nan
14343;BME280;7255;53.596;9.960;2022-08-19T06:10:25;101075.00;;;19.18;nan
14343;BME280;7255;53.596;9.960;2022-08-19T06:12:52;101074.97;;;19.29;nan
14343;BME280;7255;53.596;9.960;2022-08-19T06:15:18;101073.38;;;19.28;nan
14343;BME280;7255;53.596;9.960;2022-08-19T06:17:44;101076.09;;;19.22;nan
14343;BME280;7255;53.596;9.960;2022-08-19T06:20:13;101082.91;;;19.20;nan
14343;BME280;7255;53.596;9.960;2022-08-19T06:22:42;101081.00;;;19.15;nan
14343;BME280;7255;53.596;9.960;2022-08-19T06:25:11;101082.91;;;19.20;nan
14343;BME280;7255;53.596;9.960;2022-08-19T06:27:39;101081.53;;;19.33;nan
14343;BME280;7255;53.596;9.960;2022-08-19T06:30:06;101077.16;;;19.47;nan
14343;BME280;7255;53.596;9.960;2022-08-19T06:32:33;101087.72;;;19.64;nan
14343;BME280;7255;53.596;9.960;2022-08-19T06:34:59;101086.88;;;19.84;nan
14343;BME280;7255;53.596;9.960;2022-08-19T06:37:25;101089.59;;;19.89;nan
14343;BME280;7255;53.596;9.960;2022-08-19T06:39:52;101084.69;;;19.86;nan
14343;BME280;7255;53.596;9.960;2022-08-19T06:42:19;101077.56;;;19.95;nan
14343;BME280;7255;53.596;9.960;2022-08-19T06:44:47;101080.81;;;19.97;nan
14343;BME280;7255;53.596;9.960;2022-08-19T06:47:15;101081.37;;;19.94;nan
14343;BME280;7255;53.596;9.960;2022-08-19T06:49:43;101075.97;;;19.84;nan
14343;BME280;7255;53.596;9.960;2022-08-19T06:52:10;101077.66;;;19.75;nan
14343;BME280;7255;53.596;9.960;2022-08-19T06:54:38;101073.56;;;19.67;nan
14343;BME280;7255;53.596;9.960;2022-08-19T06:57:06;101076.50;;;19.71;nan
14343;BME280;7255;53.596;9.960;2022-08-19T06:59:35;101086.62;;;19.80;nan
14343;BME280;7255;53.596;9.960;2022-08-19T07:02:04;101073.81;;;19.76;nan
14343;BME280;7255;53.596;9.960;2022-08-19T07:04:33;101084.69;;;19.86;nan
14343;BME280;7255;53.596;9.960;2022-08-19T07:07:03;101087.97;;;19.83;nan
14343;BME280;7255;53.596;9.960;2022-08-19T07:09:34;101088.00;;;19.57;nan
14343;BME280;7255;53.596;9.960;2022-08-19T07:12:03;101082.25;;;19.79;nan
14343;BME280;7255;53.596;9.960;2022-08-19T07:14:32;101083.63;;;19.67;nan
14343;BME280;7255;53.596;9.960;2022-08-19T07:17:05;101089.91;;;19.62;nan
14343;BME280;7255;53.596;9.960;2022-08-19T07:19:33;101086.38;;;19.56;nan
14343;BME280;7255;53.596;9.960;2022-08-19T07:22:01;101094.53;;;19.67;nan
14343;BME280;7255;53.596;9.960;2022-08-19T07:24:28;101084.19;;;19.74;nan
14343;BME280;7255;53.596;9.960;2022-08-19T07:26:58;101082.81;;;19.66;nan
14343;BME280;7255;53.596;9.960;2022-08-19T07:29:28;101083.69;;;19.51;nan
14343;BME280;7255;53.596;9.960;2022-08-19T07:31:56;101086.38;;;19.56;nan
14343;BME280;7255;53.596;9.960;2022-08-19T07:34:26;101088.53;;;19.65;nan
14343;BME280;7255;53.596;9.960;2022-08-19T07:36:53;101099.41;;;19.85;nan
14343;BME280;7255;53.596;9.960;2022-08-19T07:39:23;101100.41;;;20.10;nan
14343;BME280;7255;53.596;9.960;2022-08-19T07:41:50;101103.44;;;19.98;nan
14343;BME280;7255;53.596;9.960;2022-08-19T07:44:18;101114.16;;;19.74;nan
14343;BME280;7255;53.596;9.960;2022-08-19T07:46:49;101113.28;;;19.99;nan
14343;BME280;7255;53.596;9.960;2022-08-19T07:49:17;101107.47;;;20.16;nan
14343;BME280;7255;53.596;9.960;2022-08-19T07:51:47;101117.28;;;20.17;nan
14343;BME280;7255;53.596;9.960;2022-08-19T07:54:14;101121.09;;;20.16;nan
14343;BME280;7255;53.596;9.960;2022-08-19T07:56:40;101123.94;;;19.90;nan
14343;BME280;7255;53.596;9.960;2022-08-19T07:59:07;101129.91;;;19.97;nan
14343;BME280;7255;53.596;9.960;2022-08-19T08:01:34;101131.50;;;20.09;nan
14343;BME280;7255;53.596;9.960;2022-08-19T08:04:01;101131.84;;;19.92;nan
14343;BME280;7255;53.596;9.960;2022-08-19T08:06:46;101124.72;;;20.01;nan
14343;BME280;7255;53.596;9.960;2022-08-19T08:09:33;101132.66;;;19.92;nan
14343;BME280;7255;53.596;9.960;2022-08-19T08:12:01;101143.59;;;19.82;nan
14343;BME280;7255;53.596;9.960;2022-08-19T08:14:31;101146.25;;;20.08;nan
14343;BME280;7255;53.596;9.960;2022-08-19T08:16:58;101154.06;;;20.30;nan
14343;BME280;7255;53.596;9.960;2022-08-19T08:19:27;101151.87;;;20.32;nan
14343;BME280;7255;53.596;9.960;2022-08-19T08:21:57;101141.87;;;20.02;nan
14343;BME280;7255;53.596;9.960;2022-08-19T08:24:24;101153.06;;;20.05;nan
14343;BME280;7255;53.596;9.960;2022-08-19T08:26:51;101157.16;;;20.08;nan
14343;BME280;7255;53.596;9.960;2022-08-19T08:29:17;101150.03;;;20.17;nan
14343;BME280;7255;53.596;9.960;2022-08-19T08:31:45;101154.88;;;20.30;nan
14343;BME280;7255;53.596;9.960;2022-08-19T08:34:13;101163.16;;;20.10;nan
14343;BME280;7255;53.596;9.960;2022-08-19T08:36:41;101161.78;;;20.07;nan
14343;BME280;7255;53.596;9.960;2022-08-19T08:39:11;101158.16;;;20.27;nan
14343;BME280;7255;53.596;9.960;2022-08-19T08:41:44;101157.31;;;20.32;nan
14343;BME280;7255;53.596;9.960;2022-08-19T08:44:16;101155.16;;;20.24;nan
14343;BME280;7255;53.596;9.960;2022-08-19T08:46:47;101162.25;;;20.25;nan
14343;BME280;7255;53.596;9.960;2022-08-19T08:49:22;101153.84;;;20.16;nan
14343;BME280;7255;53.596;9.960;2022-08-19T08:51:52;101161.75;;;20.17;nan
14343;BME280;7255;53.596;9.960;2022-08-19T08:54:23;101165.28;;;20.23;nan
14343;BME280;7255;53.596;9.960;2022-08-19T08:56:52;101160.03;;;20.37;nan
14343;BME280;7255;53.596;9.960;2022-08-19T08:59:25;101163.84;;;20.36;nan
14343;BME280;7255;53.596;9.960;2022-08-19T09:01:54;101171.00;;;20.27;nan
14343;BME280;7255;53.596;9.960;2022-08-19T09:04:20;101160.94;;;20.17;nan
14343;BME280;7255;53.596;9.960;2022-08-19T09:06:53;101161.12;;;20.31;nan
14343;BME280;7255;53.596;9.960;2022-08-19T09:09:28;101166.84;;;20.34;nan
14343;BME280;7255;53.596;9.960;2022-08-19T09:12:04;101165.19;;;20.44;nan
14343;BME280;7255;53.596;9.960;2022-08-19T09:14:40;101163.47;;;20.58;nan
14343;BME280;7255;53.596;9.960;2022-08-19T09:17:11;101153.06;;;20.70;nan
14343;BME280;7255;53.596;9.960;2022-08-19T09:19:49;101164.50;;;20.77;nan
14343;BME280;7255;53.596;9.960;2022-08-19T09:22:16;101168.16;;;20.97;nan
14343;BME280;7255;53.596;9.960;2022-08-19T09:24:43;101165.78;;;20.85;nan
14343;BME280;7255;53.596;9.960;2022-08-19T09:27:10;101162.53;;;20.83;nan
14343;BME280;7255;53.596;9.960;2022-08-19T09:29:36;101167.44;;;20.86;nan
14343;BME280;7255;53.596;9.960;2022-08-19T09:32:03;101168.00;;;20.83;nan
14343;BME280;7255;53.596;9.960;2022-08-19T09:34:29;101164.53;;;20.67;nan
14343;BME280;7255;53.596;9.960;2022-08-19T09:36:56;101163.19;;;20.60;nan
14343;BME280;7255;53.596;9.960;2022-08-19T09:39:23;101169.53;;;20.50;nan
14343;BME280;7255;53.596;9.960;2022-08-19T09:41:51;101157.38;;;20.76;nan
14343;BME280;7255;53.596;9.960;2022-08-19T09:44:18;101166.78;;;21.00;nan
14343;BME280;7255;53.596;9.960;2022-08-19T09:46:45;101166.53;;;20.96;nan
14343;BME280;7255;53.596;9.960;2022-08-19T09:49:12;101159.59;;;20.74;nan
14343;BME280;7255;53.596;9.960;2022-08-19T09:51:38;101159.13;;;20.57;nan
14343;BME280;7255;53.596;9.960;2022-08-19T09:54:05;101157.72;;;20.70;nan
14343;BME280;7255;53.596;9.960;2022-08-19T09:56:32;101156.81;;;20.80;nan
14343;BME280;7255;53.596;9.960;2022-08-19T09:59:00;101156.38;;;20.62;nan
14343;BME280;7255;53.596;9.960;2022-08-19T10:01:30;101163.72;;;20.67;nan
14343;BME280;7255;53.596;9.960;2022-08-19T10:03:57;101162.91;;;20.66;nan
14343;BME280;7255;53.596;9.960;2022-08-19T10:06:27;101163.91;;;20.81;nan
14343;BME280;7255;53.596;9.960;2022-08-19T10:08:56;101167.59;;;21.00;nan
14343;BME280;7255;53.596;9.960;2022-08-19T10:11:23;101170.00;;;21.12;nan
14343;BME280;7255;53.596;9.960;2022-08-19T10:13:49;101160.28;;;20.95;nan
14343;BME280;7255;53.596;9.960;2022-08-19T10:16:20;101170.00;;;21.12;nan
14343;BME280;7255;53.596;9.960;2022-08-19T10:18:47;101167.44;;;20.86;nan
14343;BME280;7255;53.596;9.960;2022-08-19T10:21:15;101172.16;;;20.75;nan
14343;BME280;7255;53.596;9.960;2022-08-19T10:23:44;101170.69;;;20.88;nan
14343;BME280;7255;53.596;9.960;2022-08-19T10:26:12;101172.66;;;20.83;nan
14343;BME280;7255;53.596;9.960;2022-08-19T10:28:40;101172.00;;;20.96;nan
14343;BME280;7255;53.596;9.960;2022-08-19T10:31:07;101176.91;;;20.99;nan
14343;BME280;7255;53.596;9.960;2022-08-19T10:33:36;101172.66;;;20.83;nan
14343;BME280;7255;53.596;9.960;2022-08-19T10:36:06;101167.75;;;20.80;nan
14343;BME280;7255;53.596;9.960;2022-08-19T10:38:33;101168.16;;;20.97;nan
14343;BME280;7255;53.596;9.960;2022-08-19T10:41:07;101166.03;;;20.89;nan
14343;BME280;7255;53.596;9.960;2022-08-19T10:43:34;101173.00;;;21.10;nan
14343;BME280;7255;53.596;9.960;2022-08-19T10:46:02;101169.56;;;20.94;nan
14343;BME280;7255;53.596;9.960;2022-08-19T10:48:29;101165.19;;;20.93;nan
14343;BME280;7255;53.596;9.960;2022-08-19T10:50:58;101174.22;;;20.94;nan
14343;BME280;7255;53.596;9.960;2022-08-19T10:53:42;101167.59;;;21.00;nan
14343;BME280;7255;53.596;9.960;2022-08-19T10:56:08;101166.19;;;20.58;nan
14343;BME280;7255;53.596;9.960;2022-08-19T10:58:52;101159.28;;;20.81;nan
14343;BME280;7255;53.596;9.960;2022-08-19T11:01:19;101168.16;;;20.97;nan
14343;BME280;7255;53.596;9.960;2022-08-19T11:03:45;101165.91;;;21.09;nan
14343;BME280;7255;53.596;9.960;2022-08-19T11:06:13;101175.03;;;21.29;nan
14343;BME280;7255;53.596;9.960;2022-08-19T11:08:39;101175.28;;;21.67;nan
14343;BME280;7255;53.596;9.960;2022-08-19T11:11:08;101157.62;;;21.83;nan
14343;BME280;7255;53.596;9.960;2022-08-19T11:13:37;101153.62;;;22.19;nan
14343;BME280;7255;53.596;9.960;2022-08-19T11:16:06;101158.72;;;22.25;nan
14343;BME280;7255;53.596;9.960;2022-08-19T11:18:35;101156.16;;;22.58;nan
14343;BME280;7255;53.596;9.960;2022-08-19T11:21:06;101161.31;;;23.17;nan
14343;BME280;7255;53.596;9.960;2022-08-19T11:23:34;101160.22;;;23.51;nan
14343;BME280;7255;53.596;9.960;2022-08-19T11:26:00;101164.25;;;23.39;nan
14343;BME280;7255;53.596;9.960;2022-08-19T11:28:27;101163.19;;;23.21;nan
14343;BME280;7255;53.596;9.960;2022-08-19T11:30:53;101177.97;;;23.20;nan
14343;BME280;7255;53.596;9.960;2022-08-19T11:33:19;101165.63;;;23.23;nan
14343;BME280;7255;53.596;9.960;2022-08-19T11:35:46;101164.06;;;22.98;nan
14343;BME280;7255;53.596;9.960;2022-08-19T11:38:12;101169.88;;;23.15;nan
14343;BME280;7255;53.596;9.960;2022-08-19T11:40:43;101159.22;;;23.28;nan
14343;BME280;7255;53.596;9.960;2022-08-19T11:43:14;101160.59;;;22.92;nan
14343;BME280;7255;53.596;9.960;2022-08-19T11:45:41;101155.84;;;22.98;nan
14343;BME280;7255;53.596;9.960;2022-08-19T11:48:08;101154.47;;;22.62;nan
14343;BME280;7255;53.596;9.960;2022-08-19T11:50:35;101150.41;;;22.79;nan
14343;BME280;7255;53.596;9.960;2022-08-19T11:53:07;101146.72;;;23.21;nan
14343;BME280;7255;53.596;9.960;2022-08-19T11:55:36;101146.13;;;23.24;nan
14343;BME280;7255;53.596;9.960;2022-08-19T11:58:05;101159.09;;;23.19;nan
14343;BME280;7255;53.596;9.960;2022-08-19T12:00:33;101153.28;;;23.39;nan
14343;BME280;7255;53.596;9.960;2022-08-19T12:03:00;101160.72;;;23.20;nan
14343;BME280;7255;53.596;9.960;2022-08-19T12:05:27;101157.12;;;23.38;nan
14343;BME280;7255;53.596;9.960;2022-08-19T12:07:53;101160.75;;;23.01;nan
14343;BME280;7255;53.596;9.960;2022-08-19T12:10:22;101152.78;;;23.04;nan
14343;BME280;7255;53.596;9.960;2022-08-19T12:12:48;101151.87;;;22.90;nan
14343;BME280;7255;53.596;9.960;2022-08-19T12:15:16;101156.72;;;22.93;nan
14343;BME280;7255;53.596;9.960;2022-08-19T12:17:42;101161.94;;;23.14;nan
14343;BME280;7255;53.596;9.960;2022-08-19T12:20:11;101155.41;;;23.10;nan
14343;BME280;7255;53.596;9.960;2022-08-19T12:22:38;101147.97;;;23.29;nan
14343;BME280;7255;53.596;9.960;2022-08-19T12:25:07;101154.22;;;23.16;nan
14343;BME280;7255;53.596;9.960;2022-08-19T12:27:34;101152.66;;;23.29;nan
14343;BME280;7255;53.596;9.960;2022-08-19T12:30:01;101149.03;;;23.47;nan
14343;BME280;7255;53.596;9.960;2022-08-19T12:32:29;101160.34;;;23.73;nan
14343;BME280;7255;53.596;9.960;2022-08-19T12:34:55;101157.00;;;23.76;nan
14343;BME280;7255;53.596;9.960;2022-08-19T12:37:22;101151.66;;;24.13;nan
14343;BME280;7255;53.596;9.960;2022-08-19T12:39:48;101146.66;;;24.15;nan
14343;BME280;7255;53.596;9.960;2022-08-19T12:42:15;101143.38;;;24.40;nan
14343;BME280;7255;53.596;9.960;2022-08-19T12:44:42;101140.78;;;24.21;nan
14343;BME280;7255;53.596;9.960;2022-08-19T12:47:11;101132.25;;;24.09;nan
14343;BME280;7255;53.596;9.960;2022-08-19T12:49:40;101134.69;;;24.11;nan
14343;BME280;7255;53.596;9.960;2022-08-19T12:52:08;101134.44;;;24.35;nan
14343;BME280;7255;53.596;9.960;2022-08-19T12:54:35;101124.56;;;24.34;nan
14343;BME280;7255;53.596;9.960;2022-08-19T12:57:05;101134.06;;;25.01;nan
14343;BME280;7255;53.596;9.960;2022-08-19T12:59:33;101131.19;;;25.06;nan
14343;BME280;7255;53.596;9.960;2022-08-19T13:01:59;101144.53;;;25.21;nan
14343;BME280;7255;53.596;9.960;2022-08-19T13:04:26;101125.56;;;24.88;nan
14343;BME280;7255;53.596;9.960;2022-08-19T13:06:53;101134.47;;;24.94;nan
14343;BME280;7255;53.596;9.960;2022-08-19T13:09:20;101132.13;;;24.78;nan
14343;BME280;7255;53.596;9.960;2022-08-19T13:11:46;101129.78;;;24.94;nan
14343;BME280;7255;53.596;9.960;2022-08-19T13:14:12;101136.84;;;25.09;nan
14343;BME280;7255;53.596;9.960;2022-08-19T13:16:38;101137.41;;;25.20;nan
14343;BME280;7255;53.596;9.960;2022-08-19T13:19:05;101124.06;;;25.05;nan
14343;BME280;7255;53.596;9.960;2022-08-19T13:21:32;101129.75;;;24.86;nan
14343;BME280;7255;53.596;9.960;2022-08-19T13:24:00;101128.75;;;25.04;nan
14343;BME280;7255;53.596;9.960;2022-08-19T13:26:26;101129.72;;;25.08;nan
14343;BME280;7255;53.596;9.960;2022-08-19T13:28:53;101118.84;;;25.26;nan